Togiak, Alaska
Current Conditions -  °F | °C
As of 7:56 AM on Thursday 30 Oct 2014 (Local Time) from PATG Reporting Station
Broken Clouds Broken Clouds  
Wind Chill: 12°   Ceiling: 2900
Heat Index: 21°   Visibility: 10mi
Dew Point: 19°   Wind: 8mph
Humidity: 93%   Direction: 20°NNE
Pressure: 29.82"   Gusts: NA
Location:  59.07°N, 160.39°W
Report Text: PATG 301556Z AUTO 02007KT 10SM BKN029 M06/M07 A2982 RMK AO1
Loading
Personal Weather Stations






























Interactive Weather Map
Tropical Storm Tracking
New forecast layout! Learn more

10-Day Weather Forecast

Advertisements
Track Severe Weather on mobile